createdAt,value
2019-04-29T00:00:43.502Z,11.49
2019-04-29T00:03:12.109Z,11.48
2019-04-29T00:05:40.549Z,11.50
2019-04-29T00:08:09.025Z,11.50
2019-04-29T00:10:37.375Z,11.47
2019-04-29T00:13:06.119Z,11.49
2019-04-29T00:15:39.010Z,11.48
2019-04-29T00:18:09.125Z,11.51
2019-04-29T00:20:39.147Z,11.42
2019-04-29T00:23:07.702Z,11.41
2019-04-29T00:25:36.156Z,11.41
2019-04-29T00:28:04.698Z,11.43
2019-04-29T00:30:33.588Z,11.35
2019-04-29T00:33:02.057Z,11.38
2019-04-29T00:35:30.961Z,11.36
2019-04-29T00:38:03.739Z,11.35
2019-04-29T00:40:42.977Z,11.38
2019-04-29T00:43:25.026Z,11.40
2019-04-29T00:45:53.526Z,11.38
2019-04-29T00:48:22.046Z,11.37
2019-04-29T00:50:50.488Z,11.32
2019-04-29T00:53:19.522Z,11.29
2019-04-29T00:55:49.647Z,11.30
2019-04-29T00:58:18.174Z,11.30
2019-04-29T01:00:46.790Z,11.31
2019-04-29T01:03:15.495Z,11.33
2019-04-29T01:05:43.962Z,11.25
2019-04-29T01:08:12.486Z,11.22
2019-04-29T01:10:40.989Z,11.22
2019-04-29T01:13:09.446Z,11.16
2019-04-29T01:15:38.215Z,11.18
2019-04-29T01:18:06.983Z,11.18
2019-04-29T01:20:35.423Z,11.17
2019-04-29T01:23:04.216Z,11.14
2019-04-29T01:25:33.274Z,11.13
2019-04-29T01:28:18.688Z,11.15
2019-04-29T01:30:55.094Z,11.15
2019-04-29T01:33:24.070Z,11.14
2019-04-29T01:35:54.220Z,11.11
2019-04-29T01:38:22.923Z,11.13
2019-04-29T01:41:08.011Z,11.07
2019-04-29T01:43:54.230Z,11.12
2019-04-29T01:46:22.605Z,11.09
2019-04-29T01:48:50.984Z,11.01
2019-04-29T01:51:19.773Z,10.99
2019-04-29T01:53:48.209Z,10.97
2019-04-29T01:56:16.617Z,10.98
2019-04-29T01:58:45.149Z,10.96
2019-04-29T02:01:13.774Z,10.94
2019-04-29T02:03:43.336Z,10.89
2019-04-29T02:06:11.847Z,10.89
2019-04-29T02:08:40.536Z,10.79
2019-04-29T02:11:09.003Z,10.77
2019-04-29T02:13:37.822Z,10.77
2019-04-29T02:16:06.340Z,10.77
2019-04-29T02:18:34.729Z,10.78
2019-04-29T02:21:03.178Z,10.76
2019-04-29T02:23:39.449Z,10.66
2019-04-29T02:26:08.056Z,10.68
2019-04-29T02:28:36.517Z,10.65
2019-04-29T02:31:23.085Z,10.69
2019-04-29T02:33:51.485Z,10.68
2019-04-29T02:36:19.875Z,10.71
2019-04-29T02:38:49.872Z,10.69
2019-04-29T02:41:20.006Z,10.65
2019-04-29T02:43:50.165Z,10.64
2019-04-29T02:46:18.916Z,10.66
2019-04-29T02:48:47.706Z,10.63
2019-04-29T02:51:18.135Z,10.67
2019-04-29T02:53:46.625Z,10.64
2019-04-29T02:56:15.085Z,10.59
2019-04-29T02:58:50.667Z,10.60
2019-04-29T03:01:29.903Z,10.60
2019-04-29T03:04:05.495Z,10.56
2019-04-29T03:06:33.999Z,10.60
2019-04-29T03:09:02.609Z,10.64
2019-04-29T03:11:31.075Z,10.67
2019-04-29T03:13:59.526Z,10.57
2019-04-29T03:16:27.974Z,10.56
2019-04-29T03:18:58.081Z,10.56
2019-04-29T03:21:34.469Z,10.56
2019-04-29T03:24:02.972Z,10.57
2019-04-29T03:26:31.399Z,10.55
2019-04-29T03:28:59.917Z,10.52
2019-04-29T03:31:28.668Z,10.54
2019-04-29T03:33:57.126Z,10.53
2019-04-29T03:36:25.582Z,10.50
2019-04-29T03:38:54.040Z,10.50
2019-04-29T03:41:22.433Z,10.49
2019-04-29T03:43:50.868Z,10.50
2019-04-29T03:46:19.663Z,10.49
2019-04-29T03:48:48.056Z,10.53
2019-04-29T03:51:16.449Z,10.52
2019-04-29T03:53:44.840Z,10.56
2019-04-29T03:56:13.599Z,10.53
2019-04-29T03:58:42.214Z,10.50
2019-04-29T04:01:15.123Z,10.52
2019-04-29T04:03:45.175Z,10.53
2019-04-29T04:06:15.512Z,10.57
2019-04-29T04:09:04.315Z,10.52
2019-04-29T04:11:15.956Z,10.49
2019-04-29T04:13:44.409Z,10.47
2019-04-29T04:16:14.463Z,10.46
2019-04-29T04:18:43.078Z,10.39
2019-04-29T04:21:11.594Z,10.42
2019-04-29T04:23:40.178Z,10.44
2019-04-29T04:26:08.772Z,10.44
2019-04-29T04:28:37.421Z,10.44
2019-04-29T04:31:06.899Z,10.48
2019-04-29T04:33:35.861Z,10.58
2019-04-29T04:36:04.677Z,10.40
2019-04-29T04:38:33.563Z,10.47
2019-04-29T04:41:03.675Z,10.43
2019-04-29T04:43:32.099Z,10.44
2019-04-29T04:46:00.721Z,10.46
2019-04-29T04:48:29.111Z,10.48
2019-04-29T04:50:57.920Z,10.45
2019-04-29T04:53:26.423Z,10.46
2019-04-29T04:55:56.657Z,10.45
2019-04-29T04:58:25.087Z,10.46
2019-04-29T05:00:53.807Z,10.47
2019-04-29T05:03:22.358Z,10.48
2019-04-29T05:05:50.778Z,10.58
2019-04-29T05:08:19.254Z,10.57
2019-04-29T05:10:47.787Z,10.53
2019-04-29T05:13:27.361Z,10.61
2019-04-29T05:15:46.471Z,10.63
2019-04-29T05:18:14.906Z,10.67
2019-04-29T05:20:43.706Z,10.65
2019-04-29T05:23:12.494Z,10.61
2019-04-29T05:25:40.948Z,10.59
2019-04-29T05:28:09.320Z,10.67
2019-04-29T05:30:37.780Z,10.60
2019-04-29T05:33:06.632Z,10.63
2019-04-29T05:35:40.415Z,10.69
2019-04-29T05:38:10.863Z,10.72
2019-04-29T05:40:43.853Z,10.73
2019-04-29T05:43:14.040Z,10.71
2019-04-29T05:45:47.869Z,10.75
2019-04-29T05:48:18.199Z,10.69
2019-04-29T05:51:00.567Z,10.66
2019-04-29T05:53:31.050Z,10.63
2019-04-29T05:55:59.448Z,10.59
2019-04-29T05:58:27.962Z,10.57
2019-04-29T06:00:58.022Z,10.54
2019-04-29T06:03:26.574Z,10.55
2019-04-29T06:05:55.093Z,10.56
2019-04-29T06:08:23.564Z,10.60
2019-04-29T06:10:52.264Z,10.58
2019-04-29T06:13:21.056Z,10.56
2019-04-29T06:15:49.462Z,10.59
2019-04-29T06:18:22.250Z,10.55
2019-04-29T06:20:48.329Z,10.53
2019-04-29T06:23:18.967Z,10.54
2019-04-29T06:25:51.084Z,10.50
2019-04-29T06:28:21.762Z,10.50
2019-04-29T06:30:50.073Z,10.51
2019-04-29T06:33:19.412Z,10.48
2019-04-29T06:35:49.021Z,10.54
2019-04-29T06:38:17.479Z,10.53
2019-04-29T06:40:46.226Z,10.56
2019-04-29T06:43:17.027Z,10.57
2019-04-29T06:45:45.453Z,10.55
2019-04-29T06:48:13.925Z,10.67
2019-04-29T06:50:42.419Z,10.71
2019-04-29T06:53:16.362Z,10.74
2019-04-29T06:55:44.162Z,10.70
2019-04-29T06:58:12.647Z,10.71
2019-04-29T07:00:41.769Z,10.70
2019-04-29T07:03:10.245Z,10.70
2019-04-29T07:05:38.612Z,10.71
2019-04-29T07:08:07.171Z,10.73
2019-04-29T07:10:35.614Z,10.75
2019-04-29T07:13:04.213Z,10.74
2019-04-29T07:15:32.760Z,10.75
2019-04-29T07:18:01.562Z,10.73
2019-04-29T07:20:32.388Z,10.73
2019-04-29T07:23:00.686Z,10.75
2019-04-29T07:25:30.384Z,10.74
2019-04-29T07:27:58.792Z,10.75
2019-04-29T07:30:29.333Z,10.81
2019-04-29T07:32:57.499Z,10.79
2019-04-29T07:35:25.917Z,10.82
2019-04-29T07:37:55.435Z,10.84
2019-04-29T07:40:24.000Z,10.81
2019-04-29T07:42:52.358Z,10.83
2019-04-29T07:45:28.124Z,10.88
2019-04-29T07:47:57.159Z,10.89
2019-04-29T07:50:26.824Z,10.92
2019-04-29T07:52:56.095Z,11.00
2019-04-29T07:55:26.140Z,11.01
2019-04-29T07:57:55.163Z,11.07
2019-04-29T08:00:34.906Z,11.07
2019-04-29T08:03:05.931Z,11.11
2019-04-29T08:05:34.535Z,11.09
2019-04-29T08:08:03.128Z,11.05
2019-04-29T08:10:31.646Z,11.02
2019-04-29T08:13:00.750Z,11.04
2019-04-29T08:15:31.844Z,11.03
2019-04-29T08:18:06.435Z,11.09
2019-04-29T08:20:29.935Z,11.12
2019-04-29T08:23:02.600Z,11.14
2019-04-29T08:25:28.901Z,11.03
2019-04-29T08:27:57.305Z,11.04
2019-04-29T08:30:25.862Z,10.99
2019-04-29T08:32:54.265Z,10.98
2019-04-29T08:35:22.883Z,10.96
2019-04-29T08:37:51.330Z,11.02
2019-04-29T08:40:19.984Z,11.06
2019-04-29T08:42:50.068Z,11.13
2019-04-29T08:45:39.097Z,11.14
2019-04-29T08:48:06.843Z,11.24
2019-04-29T08:50:35.323Z,11.19
2019-04-29T08:53:04.511Z,11.31
2019-04-29T08:55:36.308Z,11.28
2019-04-29T08:58:07.051Z,11.24
2019-04-29T09:00:33.652Z,11.32
2019-04-29T09:03:02.036Z,11.26
2019-04-29T09:05:30.540Z,11.36
2019-04-29T09:07:59.159Z,11.47
2019-04-29T09:10:27.572Z,11.45
2019-04-29T09:12:55.990Z,11.62
2019-04-29T09:15:24.524Z,11.74
2019-04-29T09:17:52.952Z,11.89
2019-04-29T09:20:21.489Z,12.08
2019-04-29T09:22:54.658Z,12.32
2019-04-29T09:25:28.025Z,12.68
2019-04-29T09:27:58.388Z,12.81
2019-04-29T09:30:27.052Z,12.94
2019-04-29T09:32:55.484Z,12.71
2019-04-29T09:35:23.930Z,12.62
2019-04-29T09:37:53.770Z,12.44
2019-04-29T09:40:27.695Z,12.35
2019-04-29T09:42:57.831Z,12.36
2019-04-29T09:45:27.928Z,12.30
2019-04-29T09:47:56.509Z,12.21
2019-04-29T09:50:24.910Z,12.21
2019-04-29T09:52:53.420Z,12.06
2019-04-29T09:55:22.961Z,12.03
2019-04-29T09:57:51.690Z,11.91
2019-04-29T10:00:28.153Z,11.86
2019-04-29T10:02:58.171Z,11.83
2019-04-29T10:05:37.417Z,11.79
2019-04-29T10:08:06.130Z,11.81
2019-04-29T10:10:37.228Z,11.78
2019-04-29T10:13:06.347Z,11.83
2019-04-29T10:15:48.841Z,11.85
2019-04-29T10:18:24.968Z,11.78
2019-04-29T10:20:59.523Z,11.96
2019-04-29T10:23:28.072Z,12.03
2019-04-29T10:25:56.684Z,11.96
2019-04-29T10:28:25.171Z,12.03
2019-04-29T10:30:53.700Z,12.05
2019-04-29T10:33:23.192Z,11.96
2019-04-29T10:35:51.756Z,11.92
2019-04-29T10:38:20.210Z,11.89
2019-04-29T10:40:52.432Z,11.80
2019-04-29T10:43:25.329Z,11.79
2019-04-29T10:46:01.523Z,11.91
2019-04-29T10:48:34.882Z,11.90
2019-04-29T10:51:04.574Z,11.98
2019-04-29T10:53:33.568Z,12.02
2019-04-29T10:56:05.834Z,12.00
2019-04-29T10:58:35.578Z,12.05
2019-04-29T11:01:16.902Z,12.08
2019-04-29T11:03:45.558Z,12.05
2019-04-29T11:06:16.231Z,12.14
2019-04-29T11:08:49.774Z,12.26
2019-04-29T11:11:24.133Z,12.41
2019-04-29T11:13:50.638Z,12.34
2019-04-29T11:16:22.827Z,12.23
2019-04-29T11:18:49.429Z,12.25
2019-04-29T11:21:17.871Z,12.23
2019-04-29T11:23:50.619Z,12.24
2019-04-29T11:26:22.746Z,12.24
2019-04-29T11:28:52.858Z,12.27
2019-04-29T11:31:21.706Z,12.34
2019-04-29T11:33:54.578Z,12.47
2019-04-29T11:36:24.775Z,12.49
2019-04-29T11:38:53.740Z,12.52
2019-04-29T11:41:22.384Z,12.45
2019-04-29T11:43:52.722Z,12.45
2019-04-29T11:46:22.526Z,12.55
2019-04-29T11:48:52.535Z,12.56
2019-04-29T11:51:22.653Z,12.74
2019-04-29T11:53:51.718Z,12.89
2019-04-29T11:56:29.631Z,12.87
2019-04-29T11:59:06.041Z,12.84
2019-04-29T12:01:46.727Z,12.84
2019-04-29T12:04:28.690Z,12.86
2019-04-29T12:06:58.222Z,12.89
2019-04-29T12:09:30.425Z,12.91
2019-04-29T12:11:57.416Z,12.90
2019-04-29T12:14:27.506Z,12.98
2019-04-29T12:17:15.698Z,13.15
2019-04-29T12:19:48.243Z,13.20
2019-04-29T12:22:28.232Z,13.37
2019-04-29T12:24:47.023Z,13.49
2019-04-29T12:27:19.866Z,13.64
2019-04-29T12:29:48.800Z,13.73
2019-04-29T12:32:25.130Z,13.98
2019-04-29T12:35:09.543Z,14.04
2019-04-29T12:37:39.600Z,14.13
2019-04-29T12:40:25.519Z,14.27
2019-04-29T12:42:58.731Z,14.44
2019-04-29T12:45:31.619Z,14.51
2019-04-29T12:48:00.164Z,14.79
2019-04-29T12:50:28.815Z,14.82
2019-04-29T12:52:57.279Z,14.95
2019-04-29T12:55:43.595Z,14.92
2019-04-29T12:57:57.703Z,14.87
2019-04-29T13:00:30.748Z,14.74
2019-04-29T13:03:01.874Z,14.73
2019-04-29T13:05:37.697Z,14.93
2019-04-29T13:08:13.699Z,15.01
2019-04-29T13:10:56.016Z,15.18
2019-04-29T13:13:24.568Z,15.21
2019-04-29T13:16:10.934Z,15.24
2019-04-29T13:19:10.778Z,15.28
2019-04-29T13:21:29.707Z,15.36
2019-04-29T13:24:12.511Z,15.49
2019-04-29T13:26:29.049Z,15.63
2019-04-29T13:29:00.742Z,15.73
2019-04-29T13:31:38.089Z,15.79
2019-04-29T13:34:08.916Z,15.71
2019-04-29T13:36:30.731Z,15.78
2019-04-29T13:38:59.422Z,15.72
2019-04-29T13:41:28.272Z,15.67
2019-04-29T13:44:04.539Z,15.61
2019-04-29T13:46:32.917Z,15.63
2019-04-29T13:49:18.027Z,15.49
2019-04-29T13:51:48.131Z,15.37
2019-04-29T13:54:16.690Z,15.40
2019-04-29T13:56:56.145Z,15.50
2019-04-29T13:59:20.101Z,15.77
2019-04-29T14:02:06.769Z,16.01
2019-04-29T14:04:33.965Z,16.04
2019-04-29T14:07:02.574Z,16.29
2019-04-29T14:09:35.020Z,16.91
2019-04-29T14:12:24.874Z,17.58
2019-04-29T14:14:31.859Z,18.20
2019-04-29T14:17:24.077Z,18.49
2019-04-29T14:19:40.791Z,18.59
2019-04-29T14:22:00.763Z,18.34
2019-04-29T14:24:29.271Z,18.06
2019-04-29T14:26:57.951Z,17.93
2019-04-29T14:29:28.418Z,18.14
2019-04-29T14:31:59.323Z,18.48
2019-04-29T14:34:34.918Z,18.78
2019-04-29T14:37:19.582Z,18.68
2019-04-29T14:39:37.453Z,18.49
2019-04-29T14:42:05.294Z,18.29
2019-04-29T14:44:35.669Z,18.49
2019-04-29T14:47:14.604Z,18.82
2019-04-29T14:49:47.896Z,19.33
2019-04-29T14:52:16.791Z,19.18
2019-04-29T14:54:45.236Z,19.31
2019-04-29T14:57:13.648Z,19.64
2019-04-29T14:59:42.383Z,19.86
2019-04-29T15:02:17.037Z,19.49
2019-04-29T15:04:44.307Z,19.16
2019-04-29T15:07:12.802Z,19.14
2019-04-29T15:09:58.054Z,18.94
2019-04-29T15:12:52.032Z,18.91
2019-04-29T15:15:18.291Z,18.83
2019-04-29T15:17:48.713Z,18.82
2019-04-29T15:20:18.897Z,18.73
2019-04-29T15:22:47.297Z,18.66
2019-04-29T15:25:16.858Z,18.57
2019-04-29T15:27:46.101Z,18.52
2019-04-29T15:30:15.327Z,18.49
2019-04-29T15:32:43.992Z,18.34
2019-04-29T15:35:12.653Z,18.27
2019-04-29T15:37:41.182Z,18.18
2019-04-29T15:40:09.836Z,18.06
2019-04-29T15:42:43.210Z,18.01
2019-04-29T15:45:08.738Z,17.96
2019-04-29T15:47:41.711Z,17.93
2019-04-29T15:50:18.300Z,17.88
2019-04-29T15:52:38.990Z,17.86
2019-04-29T15:55:07.511Z,17.78
2019-04-29T15:57:36.239Z,17.70
2019-04-29T16:00:21.195Z,17.67
2019-04-29T16:02:41.068Z,17.60
2019-04-29T16:05:15.585Z,17.58
2019-04-29T16:08:03.781Z,17.64
2019-04-29T16:10:37.285Z,17.53
2019-04-29T16:13:10.151Z,17.45
2019-04-29T16:15:38.615Z,17.46
2019-04-29T16:18:10.744Z,17.39
2019-04-29T16:20:38.440Z,17.33
2019-04-29T16:23:06.903Z,17.33
2019-04-29T16:25:40.577Z,17.26
2019-04-29T16:28:05.838Z,17.10
2019-04-29T16:30:34.450Z,16.99
2019-04-29T16:35:34.856Z,16.92
2019-04-29T16:38:11.423Z,16.78
2019-04-29T16:40:39.243Z,16.82
2019-04-29T16:43:10.723Z,16.69
2019-04-29T16:45:44.320Z,16.72
2019-04-29T16:48:13.716Z,16.64
2019-04-29T16:50:42.217Z,16.70
2019-04-29T16:53:13.099Z,16.55
2019-04-29T16:55:43.046Z,16.50
2019-04-29T16:58:17.922Z,16.49
2019-04-29T17:00:46.696Z,16.51
2019-04-29T17:03:12.736Z,16.36
2019-04-29T17:05:41.323Z,16.29
2019-04-29T17:08:15.156Z,16.36
2019-04-29T17:10:47.312Z,16.23
2019-04-29T17:13:23.443Z,16.15
2019-04-29T17:15:52.357Z,16.09
2019-04-29T17:18:17.661Z,16.08
2019-04-29T17:20:46.311Z,16.00
2019-04-29T17:23:15.026Z,15.98
2019-04-29T17:25:43.820Z,15.89
2019-04-29T17:28:24.118Z,15.77
2019-04-29T17:31:11.910Z,15.71
2019-04-29T17:33:37.923Z,15.66
2019-04-29T17:35:14.230Z,16.99
2019-04-29T17:36:07.439Z,15.60
2019-04-29T17:38:35.900Z,15.53
2019-04-29T17:41:04.568Z,15.45
2019-04-29T17:43:52.723Z,15.34
2019-04-29T17:46:22.731Z,15.33
2019-04-29T17:48:53.244Z,15.27
2019-04-29T17:51:22.702Z,15.19
2019-04-29T17:53:54.849Z,15.17
2019-04-29T17:56:37.076Z,15.09
2019-04-29T17:59:09.847Z,14.99
2019-04-29T18:01:44.819Z,14.91
2019-04-29T18:04:16.652Z,14.88
2019-04-29T18:07:08.308Z,14.83
2019-04-29T18:09:47.554Z,14.78
2019-04-29T18:12:19.140Z,14.64
2019-04-29T18:14:47.557Z,14.50
2019-04-29T18:17:26.706Z,14.36
2019-04-29T18:20:08.604Z,14.26
2019-04-29T18:22:37.861Z,14.30
2019-04-29T18:25:07.990Z,14.26
2019-04-29T18:27:38.544Z,14.15
2019-04-29T18:30:12.207Z,14.10
2019-04-29T18:32:42.309Z,14.05
2019-04-29T18:35:10.864Z,13.97
2019-04-29T18:37:39.550Z,13.90
2019-04-29T18:40:11.178Z,13.64
2019-04-29T18:42:43.289Z,13.68
2019-04-29T18:45:09.444Z,13.56
2019-04-29T18:47:38.902Z,13.54
2019-04-29T18:50:11.290Z,13.59
2019-04-29T18:52:40.376Z,13.44
2019-04-29T18:55:13.929Z,13.36
2019-04-29T18:57:44.634Z,13.42
2019-04-29T19:00:19.286Z,13.31
2019-04-29T19:02:47.470Z,13.26
2019-04-29T19:05:26.355Z,13.18
2019-04-29T19:07:56.580Z,13.07
2019-04-29T19:10:32.958Z,12.95
2019-04-29T19:12:59.655Z,12.89
2019-04-29T19:15:25.610Z,12.83
2019-04-29T19:18:01.353Z,12.77
2019-04-29T19:20:25.186Z,12.76
2019-04-29T19:23:05.399Z,12.71
2019-04-29T19:25:25.523Z,12.71
2019-04-29T19:27:55.596Z,12.59
2019-04-29T19:30:29.083Z,12.58
2019-04-29T19:33:00.444Z,12.54
2019-04-29T19:35:25.313Z,12.49
2019-04-29T19:37:55.562Z,12.41
2019-04-29T19:40:25.828Z,12.44
2019-04-29T19:42:55.923Z,12.35
2019-04-29T19:45:24.357Z,12.35
2019-04-29T19:47:53.448Z,12.24
2019-04-29T19:50:21.970Z,12.27
2019-04-29T19:52:50.635Z,12.23
2019-04-29T19:55:19.265Z,12.21
2019-04-29T19:57:52.240Z,12.16
2019-04-29T20:00:18.782Z,12.04
2019-04-29T20:02:50.387Z,12.11
2019-04-29T20:05:23.877Z,12.07
2019-04-29T20:07:51.258Z,12.03
2019-04-29T20:10:21.331Z,12.00
2019-04-29T20:12:53.091Z,11.98
2019-04-29T20:15:21.473Z,11.88
2019-04-29T20:17:52.238Z,11.83
2019-04-29T20:20:38.457Z,11.82
2019-04-29T20:23:05.967Z,11.79
2019-04-29T20:25:38.266Z,11.80
2019-04-29T20:28:08.119Z,11.77
2019-04-29T20:30:35.636Z,11.74
2019-04-29T20:33:11.323Z,11.70
2019-04-29T20:35:35.761Z,11.57
2019-04-29T20:38:05.522Z,11.56
2019-04-29T20:40:36.350Z,11.50
2019-04-29T20:43:07.818Z,11.46
2019-04-29T20:45:35.518Z,11.40
2019-04-29T20:48:06.203Z,11.33
2019-04-29T20:50:35.426Z,11.28
2019-04-29T20:53:06.034Z,11.23
2019-04-29T20:55:36.778Z,11.23
2019-04-29T20:58:06.518Z,11.21
2019-04-29T21:00:36.975Z,11.19
2019-04-29T21:03:09.338Z,11.25
2019-04-29T21:05:47.158Z,11.31
2019-04-29T21:08:14.329Z,11.13
2019-04-29T21:10:37.977Z,11.11
2019-04-29T21:13:20.543Z,11.04
2019-04-29T21:15:55.496Z,10.95
2019-04-29T21:18:25.061Z,10.94
2019-04-29T21:20:55.121Z,10.74
2019-04-29T21:23:23.853Z,10.64
2019-04-29T21:25:52.286Z,10.60
2019-04-29T21:28:20.760Z,10.57
2019-04-29T21:30:49.135Z,10.66
2019-04-29T21:33:21.498Z,10.67
2019-04-29T21:35:57.634Z,10.59
2019-04-29T21:38:28.323Z,10.60
2019-04-29T21:41:07.240Z,10.67
2019-04-29T21:43:37.261Z,10.58
2019-04-29T21:46:06.006Z,10.55
2019-04-29T21:48:37.329Z,10.60
2019-04-29T21:51:06.835Z,10.56
2019-04-29T21:53:40.142Z,10.50
2019-04-29T21:56:09.099Z,10.47
2019-04-29T21:58:36.225Z,10.50
2019-04-29T22:01:06.222Z,10.45
2019-04-29T22:03:34.737Z,10.43
2019-04-29T22:06:03.282Z,10.48
2019-04-29T22:08:31.796Z,10.45
2019-04-29T22:11:04.791Z,10.43
2019-04-29T22:13:34.534Z,10.42
2019-04-29T22:16:00.684Z,10.38
2019-04-29T22:18:29.812Z,10.38
2019-04-29T22:20:58.387Z,10.32
2019-04-29T22:23:26.867Z,10.31
2019-04-29T22:25:56.743Z,10.21
2019-04-29T22:28:25.327Z,10.19
2019-04-29T22:30:54.779Z,10.17
2019-04-29T22:33:25.250Z,10.15
2019-04-29T22:35:55.494Z,10.13
2019-04-29T22:38:24.978Z,10.08
2019-04-29T22:40:55.187Z,10.06
2019-04-29T22:43:33.854Z,10.06
2019-04-29T22:46:04.845Z,10.06
2019-04-29T22:48:32.315Z,10.09
2019-04-29T22:51:00.733Z,10.07
2019-04-29T22:53:29.133Z,9.98
2019-04-29T22:55:57.544Z,9.90
2019-04-29T22:58:25.924Z,9.86
2019-04-29T23:00:54.414Z,9.92
2019-04-29T23:03:22.866Z,9.89
2019-04-29T23:05:51.285Z,9.90
2019-04-29T23:08:19.702Z,9.90
2019-04-29T23:10:48.608Z,9.89
2019-04-29T23:13:16.991Z,9.85
2019-04-29T23:15:45.626Z,9.84
2019-04-29T23:18:24.345Z,9.84
2019-04-29T23:21:04.043Z,9.77
2019-04-29T23:23:47.930Z,9.81
2019-04-29T23:26:16.872Z,9.73
2019-04-29T23:28:45.728Z,9.60
2019-04-29T23:31:14.420Z,9.63
2019-04-29T23:33:42.829Z,9.60
2019-04-29T23:36:14.131Z,9.58
2019-04-29T23:38:42.734Z,9.58
2019-04-29T23:41:11.842Z,9.53
2019-04-29T23:43:40.208Z,9.51
2019-04-29T23:46:08.585Z,9.50
2019-04-29T23:48:39.440Z,9.46
2019-04-29T23:51:07.146Z,9.42
2019-04-29T23:53:35.509Z,9.40
2019-04-29T23:56:05.666Z,9.34
2019-04-29T23:58:37.206Z,9.33
